createdAt,value
2022-09-30T00:00:29.105Z,6.97
2022-09-30T00:03:31.388Z,7.03
2022-09-30T00:06:35.318Z,6.80
2022-09-30T00:09:37.641Z,7.28
2022-09-30T00:12:39.966Z,7.50
2022-09-30T00:15:46.992Z,6.97
2022-09-30T00:18:49.815Z,8.52
2022-09-30T00:21:52.097Z,8.30
2022-09-30T00:24:54.358Z,7.18
2022-09-30T00:27:56.608Z,7.95
2022-09-30T00:31:05.475Z,8.57
2022-09-30T00:34:08.651Z,9.15
2022-09-30T00:37:15.115Z,9.70
2022-09-30T00:40:19.972Z,8.48
2022-09-30T00:43:40.961Z,8.45
2022-09-30T00:46:45.007Z,8.43
2022-09-30T00:49:47.471Z,7.97
2022-09-30T00:53:01.611Z,8.95
2022-09-30T00:56:19.490Z,8.95
2022-09-30T00:59:27.200Z,10.73
2022-09-30T01:02:29.439Z,9.67
2022-09-30T01:05:33.108Z,9.98
2022-09-30T01:08:37.856Z,9.82
2022-09-30T01:11:40.356Z,9.57
2022-09-30T01:14:43.186Z,9.30
2022-09-30T01:17:57.799Z,9.43
2022-09-30T01:21:09.877Z,9.40
2022-09-30T01:24:40.048Z,9.38
2022-09-30T01:28:24.575Z,8.75
2022-09-30T01:32:10.989Z,9.05
2022-09-30T01:35:23.836Z,9.07
2022-09-30T01:38:30.248Z,8.73
2022-09-30T01:41:40.852Z,8.45
2022-09-30T01:45:02.876Z,8.23
2022-09-30T01:48:34.712Z,9.07
2022-09-30T01:51:56.341Z,8.37
2022-09-30T01:55:14.370Z,8.20
2022-09-30T01:58:23.127Z,8.75
2022-09-30T02:01:33.780Z,9.43
2022-09-30T02:04:43.233Z,9.43
2022-09-30T02:07:53.502Z,9.37
2022-09-30T02:11:03.243Z,9.52
2022-09-30T02:14:23.904Z,9.82
2022-09-30T02:17:30.314Z,9.15
2022-09-30T02:20:39.411Z,9.68
2022-09-30T02:23:42.880Z,8.97
2022-09-30T02:26:47.269Z,10.55
2022-09-30T02:29:53.346Z,9.98
2022-09-30T02:33:08.216Z,7.53
2022-09-30T02:36:25.167Z,8.77
2022-09-30T02:39:29.957Z,8.80
2022-09-30T02:42:32.974Z,8.07
2022-09-30T02:45:43.863Z,8.38
2022-09-30T02:48:49.121Z,8.13
2022-09-30T02:52:04.247Z,8.65
2022-09-30T02:55:38.924Z,8.70
2022-09-30T02:58:41.887Z,9.48
2022-09-30T03:01:44.185Z,8.60
2022-09-30T03:04:48.252Z,6.88
2022-09-30T03:07:50.876Z,6.60
2022-09-30T03:10:53.322Z,7.00
2022-09-30T03:14:04.612Z,6.97
2022-09-30T03:17:48.454Z,6.63
2022-09-30T03:20:50.685Z,6.72
2022-09-30T03:23:55.969Z,6.72
2022-09-30T03:27:01.512Z,7.13
2022-09-30T03:30:22.107Z,5.90
2022-09-30T03:33:35.445Z,6.32
2022-09-30T03:36:56.344Z,6.40
2022-09-30T03:40:11.767Z,5.85
2022-09-30T03:43:31.551Z,5.67
2022-09-30T03:46:45.672Z,5.38
2022-09-30T03:49:56.079Z,5.55
2022-09-30T03:52:58.473Z,6.18
2022-09-30T03:56:03.527Z,6.95
2022-09-30T03:59:05.793Z,11.13
2022-09-30T04:02:10.560Z,7.60
2022-09-30T04:05:13.166Z,7.13
2022-09-30T04:08:16.193Z,6.50
2022-09-30T04:11:18.507Z,5.93
2022-09-30T04:14:20.767Z,6.00
2022-09-30T04:17:23.236Z,5.65
2022-09-30T04:20:26.027Z,5.57
2022-09-30T04:23:28.266Z,6.55
2022-09-30T04:26:30.561Z,5.85
2022-09-30T04:29:32.834Z,5.80
2022-09-30T04:32:35.131Z,5.57
2022-09-30T04:35:37.949Z,4.80
2022-09-30T04:38:40.276Z,5.53
2022-09-30T04:41:43.261Z,5.90
2022-09-30T04:44:45.558Z,5.33
2022-09-30T04:47:47.907Z,5.93
2022-09-30T04:50:51.142Z,5.57
2022-09-30T04:53:53.951Z,5.47
2022-09-30T04:56:56.219Z,5.43
2022-09-30T04:59:58.522Z,6.07
2022-09-30T05:03:00.982Z,7.22
2022-09-30T05:06:03.960Z,6.50
2022-09-30T05:09:06.845Z,7.28
2022-09-30T05:12:09.180Z,7.38
2022-09-30T05:15:11.713Z,6.33
2022-09-30T05:18:13.949Z,4.97
2022-09-30T05:21:19.726Z,5.60
2022-09-30T05:24:22.182Z,5.15
2022-09-30T05:27:25.467Z,5.38
2022-09-30T05:30:28.399Z,5.53
2022-09-30T05:33:33.443Z,5.20
2022-09-30T05:36:36.253Z,5.63
2022-09-30T05:39:38.531Z,5.95
2022-09-30T05:42:40.804Z,6.50
2022-09-30T05:45:43.136Z,6.83
2022-09-30T05:48:45.740Z,41.00
2022-09-30T05:51:48.267Z,7.03
2022-09-30T05:54:50.710Z,6.55
2022-09-30T05:57:53.073Z,6.82
2022-09-30T06:00:55.620Z,7.27
2022-09-30T06:03:57.955Z,7.13
2022-09-30T06:07:00.152Z,7.68
2022-09-30T06:10:07.955Z,6.82
2022-09-30T06:13:10.752Z,7.20
2022-09-30T06:16:14.013Z,8.30
2022-09-30T06:19:16.346Z,7.68
2022-09-30T06:22:25.786Z,8.00
2022-09-30T06:25:31.783Z,8.23
2022-09-30T06:28:35.436Z,8.35
2022-09-30T06:31:38.393Z,8.60
2022-09-30T06:34:40.665Z,8.02
2022-09-30T06:37:44.842Z,7.95
2022-09-30T06:40:50.391Z,7.25
2022-09-30T06:43:52.814Z,7.38
2022-09-30T06:46:55.218Z,6.77
2022-09-30T06:49:59.195Z,7.28
2022-09-30T06:53:03.673Z,7.07
2022-09-30T06:56:07.553Z,7.10
2022-09-30T06:59:09.858Z,8.55
2022-09-30T07:02:13.487Z,7.23
2022-09-30T07:05:16.933Z,10.35
2022-09-30T07:08:19.251Z,9.77
2022-09-30T07:11:21.574Z,9.52
2022-09-30T07:14:24.149Z,7.50
2022-09-30T07:17:27.736Z,7.13
2022-09-30T07:20:29.919Z,15.73
2022-09-30T07:23:32.197Z,7.13
2022-09-30T07:26:34.586Z,7.25
2022-09-30T07:29:56.861Z,7.10
2022-09-30T07:32:59.140Z,6.80
2022-09-30T07:36:03.717Z,6.15
2022-09-30T07:39:08.589Z,6.47
2022-09-30T07:42:19.021Z,6.90
2022-09-30T07:45:25.442Z,5.85
2022-09-30T07:48:46.300Z,5.97
2022-09-30T07:51:48.555Z,5.00
2022-09-30T07:54:51.032Z,4.85
2022-09-30T07:57:53.289Z,4.70
2022-09-30T08:00:55.560Z,4.80
2022-09-30T08:04:00.458Z,5.30
2022-09-30T08:07:03.416Z,5.47
2022-09-30T08:10:06.371Z,5.88
2022-09-30T08:13:09.208Z,5.40
2022-09-30T08:16:11.506Z,6.10
2022-09-30T08:19:16.713Z,6.13
2022-09-30T08:22:19.107Z,6.40
2022-09-30T08:25:23.002Z,6.53
2022-09-30T08:28:25.804Z,7.13
2022-09-30T08:31:28.230Z,7.45
2022-09-30T08:34:33.984Z,8.23
2022-09-30T08:37:36.233Z,9.18
2022-09-30T08:40:52.610Z,9.80
2022-09-30T08:44:26.025Z,10.63
2022-09-30T08:47:50.132Z,11.38
2022-09-30T08:51:08.217Z,10.83
2022-09-30T08:54:15.326Z,11.80
2022-09-30T08:57:18.500Z,11.38
2022-09-30T09:00:22.879Z,11.45
2022-09-30T09:03:31.057Z,11.13
2022-09-30T09:06:36.301Z,11.37
2022-09-30T09:10:26.300Z,11.48
2022-09-30T09:13:43.938Z,10.38
2022-09-30T09:17:15.667Z,9.55
2022-09-30T09:20:22.157Z,10.07
2022-09-30T09:23:25.442Z,9.17
2022-09-30T09:26:30.778Z,9.27
2022-09-30T09:29:38.880Z,8.18
2022-09-30T09:32:43.059Z,8.30
2022-09-30T09:36:13.487Z,7.65
2022-09-30T09:39:19.479Z,9.13
2022-09-30T09:42:27.750Z,5.80
2022-09-30T09:45:39.695Z,5.10
2022-09-30T09:48:42.875Z,5.20
2022-09-30T09:52:11.254Z,5.68
2022-09-30T09:55:15.110Z,3.70
2022-09-30T09:58:17.554Z,2.90
2022-09-30T10:01:32.936Z,2.03
2022-09-30T10:04:41.977Z,1.70
2022-09-30T10:07:44.626Z,1.65
2022-09-30T10:10:56.310Z,1.83
2022-09-30T10:14:00.726Z,2.08
2022-09-30T10:17:05.674Z,2.00
2022-09-30T10:20:23.618Z,2.03
2022-09-30T10:23:35.983Z,2.20
2022-09-30T10:26:48.461Z,2.30
2022-09-30T10:29:52.547Z,2.53
2022-09-30T10:32:55.126Z,2.10
2022-09-30T10:36:07.268Z,2.40
2022-09-30T10:39:24.045Z,2.25
2022-09-30T10:42:28.384Z,2.90
2022-09-30T10:45:49.426Z,1.90
2022-09-30T10:49:15.845Z,2.85
2022-09-30T10:52:24.753Z,2.67
2022-09-30T10:56:00.229Z,1.95
2022-09-30T10:59:05.989Z,2.20
2022-09-30T11:05:30.441Z,2.17
2022-09-30T11:08:54.376Z,1.75
2022-09-30T11:12:15.375Z,1.80
2022-09-30T11:15:28.845Z,1.60
2022-09-30T11:19:04.514Z,2.15
2022-09-30T11:22:29.698Z,1.80
2022-09-30T11:25:50.233Z,1.30
2022-09-30T11:29:05.293Z,1.25
2022-09-30T11:32:20.025Z,1.53
2022-09-30T11:35:32.510Z,1.55
2022-09-30T11:38:48.274Z,1.50
2022-09-30T11:42:23.305Z,1.25
2022-09-30T11:46:01.267Z,1.60
2022-09-30T11:49:34.639Z,1.70
2022-09-30T11:52:42.884Z,1.30
2022-09-30T11:56:07.558Z,1.35
2022-09-30T11:59:27.946Z,1.38
2022-09-30T12:02:40.210Z,1.73
2022-09-30T12:05:45.932Z,1.70
2022-09-30T12:08:56.953Z,1.48
2022-09-30T12:12:12.450Z,0.98
2022-09-30T12:15:21.195Z,0.60
2022-09-30T12:18:37.282Z,0.70
2022-09-30T12:21:44.735Z,0.67
2022-09-30T12:24:47.025Z,0.40
2022-09-30T12:28:00.687Z,0.55
2022-09-30T12:31:36.183Z,0.30
2022-09-30T12:34:48.387Z,0.50
2022-09-30T12:38:12.514Z,0.80
2022-09-30T12:41:39.191Z,0.40
2022-09-30T12:44:48.647Z,0.30
2022-09-30T12:47:54.067Z,0.50
2022-09-30T12:50:58.135Z,0.32
2022-09-30T12:54:06.007Z,0.30
2022-09-30T12:57:11.857Z,0.40
2022-09-30T13:00:21.153Z,0.40
2022-09-30T13:03:24.991Z,0.30
2022-09-30T13:06:47.155Z,0.40
2022-09-30T13:10:25.406Z,0.30
2022-09-30T13:13:31.925Z,0.40
2022-09-30T13:17:05.282Z,0.30
2022-09-30T13:20:47.284Z,0.47
2022-09-30T13:23:54.506Z,0.93
2022-09-30T13:27:15.404Z,0.63
2022-09-30T13:30:17.795Z,0.75
2022-09-30T13:33:41.362Z,1.25
2022-09-30T13:36:52.795Z,0.80
2022-09-30T13:39:56.353Z,0.52
2022-09-30T13:43:00.276Z,0.60
2022-09-30T13:46:17.913Z,0.55
2022-09-30T13:49:25.594Z,0.50
2022-09-30T13:52:35.355Z,0.50
2022-09-30T13:55:45.675Z,1.08
2022-09-30T13:59:22.729Z,1.00
2022-09-30T14:02:25.570Z,1.80
2022-09-30T14:05:43.127Z,0.98
2022-09-30T14:09:00.321Z,1.10
2022-09-30T14:12:32.108Z,0.80
2022-09-30T14:16:02.038Z,1.10
2022-09-30T14:19:26.301Z,0.80
2022-09-30T14:22:30.240Z,0.80
2022-09-30T14:25:39.104Z,0.80
2022-09-30T14:28:59.575Z,0.73
2022-09-30T14:32:30.280Z,1.00
2022-09-30T14:35:34.392Z,1.05
2022-09-30T14:38:36.950Z,1.15
2022-09-30T14:41:41.154Z,1.15
2022-09-30T14:44:43.414Z,1.33
2022-09-30T14:47:49.173Z,1.00
2022-09-30T14:50:56.567Z,1.20
2022-09-30T14:54:02.909Z,0.88
2022-09-30T14:57:15.426Z,0.70
2022-09-30T15:00:25.592Z,0.90
2022-09-30T15:03:28.547Z,1.53
2022-09-30T15:06:33.365Z,0.90
2022-09-30T15:09:38.693Z,1.10
2022-09-30T15:12:42.313Z,0.90
2022-09-30T15:15:45.099Z,1.10
2022-09-30T15:18:47.486Z,1.00
2022-09-30T15:21:54.651Z,1.00
2022-09-30T15:24:57.661Z,0.95
2022-09-30T15:28:00.076Z,1.23
2022-09-30T15:31:02.960Z,1.02
2022-09-30T15:34:23.373Z,1.20
2022-09-30T15:37:33.745Z,1.05
2022-09-30T15:40:50.490Z,1.40
2022-09-30T15:43:54.065Z,1.20
2022-09-30T15:47:02.858Z,1.40
2022-09-30T15:50:05.669Z,1.40
2022-09-30T15:53:15.221Z,1.50
2022-09-30T15:56:17.422Z,1.40
2022-09-30T15:59:19.695Z,1.40
2022-09-30T16:02:24.101Z,1.45
2022-09-30T16:05:27.214Z,1.27
2022-09-30T16:08:31.662Z,1.48
2022-09-30T16:11:41.976Z,1.80
2022-09-30T16:14:54.173Z,1.33
2022-09-30T16:17:57.927Z,1.88
2022-09-30T16:21:05.332Z,1.60
2022-09-30T16:24:22.598Z,1.60
2022-09-30T16:27:31.270Z,1.63
2022-09-30T16:30:33.604Z,1.40
2022-09-30T16:33:40.288Z,1.95
2022-09-30T16:36:42.511Z,1.50
2022-09-30T16:39:44.753Z,1.80
2022-09-30T16:42:47.222Z,1.95
2022-09-30T16:45:49.577Z,2.25
2022-09-30T16:48:51.830Z,2.05
2022-09-30T16:51:54.134Z,2.40
2022-09-30T16:54:56.490Z,2.65
2022-09-30T16:57:59.200Z,3.58
2022-09-30T17:01:01.702Z,2.80
2022-09-30T17:04:04.505Z,2.63
2022-09-30T17:07:06.865Z,2.50
2022-09-30T17:10:18.444Z,2.80
2022-09-30T17:13:20.712Z,3.03
2022-09-30T17:16:23.881Z,3.03
2022-09-30T17:19:30.084Z,2.88
2022-09-30T17:22:32.365Z,2.60
2022-09-30T17:25:34.832Z,2.65
2022-09-30T17:28:37.189Z,2.97
2022-09-30T17:31:39.591Z,2.72
2022-09-30T17:34:41.919Z,2.75
2022-09-30T17:37:46.367Z,2.77
2022-09-30T17:41:07.639Z,2.65
2022-09-30T17:44:09.871Z,3.47
2022-09-30T17:47:12.121Z,3.58
2022-09-30T17:50:14.547Z,3.53
2022-09-30T17:53:19.057Z,3.47
2022-09-30T17:56:22.793Z,3.40
2022-09-30T17:59:26.986Z,3.22
2022-09-30T18:02:29.625Z,3.38
2022-09-30T18:05:33.508Z,3.25
2022-09-30T18:08:35.992Z,3.60
2022-09-30T18:11:43.445Z,3.20
2022-09-30T18:14:46.583Z,3.45
2022-09-30T18:17:48.890Z,3.40
2022-09-30T18:20:52.076Z,3.72
2022-09-30T18:23:57.437Z,3.97
2022-09-30T18:26:59.739Z,3.65
2022-09-30T18:30:04.449Z,3.65
2022-09-30T18:33:07.768Z,3.60
2022-09-30T18:36:10.156Z,3.55
2022-09-30T18:39:12.525Z,3.83
2022-09-30T18:42:14.858Z,4.32
2022-09-30T18:45:17.341Z,4.53
2022-09-30T18:48:19.798Z,4.70
2022-09-30T18:51:23.368Z,4.75
2022-09-30T18:54:25.685Z,4.93
2022-09-30T18:57:28.006Z,5.72
2022-09-30T19:00:30.653Z,5.35
2022-09-30T19:03:33.149Z,5.53
2022-09-30T19:06:35.726Z,5.88
2022-09-30T19:09:40.322Z,5.43
2022-09-30T19:12:44.670Z,5.03
2022-09-30T19:15:47.124Z,5.38
2022-09-30T19:18:50.026Z,4.75
2022-09-30T19:21:52.377Z,5.53
2022-09-30T19:24:54.674Z,5.23
2022-09-30T19:27:57.327Z,5.68
2022-09-30T19:31:04.053Z,6.15
2022-09-30T19:34:07.291Z,6.50
2022-09-30T19:37:20.119Z,6.55
2022-09-30T19:40:26.311Z,5.87
2022-09-30T19:43:29.742Z,5.38
2022-09-30T19:46:32.081Z,5.57
2022-09-30T19:49:34.375Z,5.65
2022-09-30T19:52:42.631Z,5.20
2022-09-30T19:56:19.205Z,5.70
2022-09-30T19:59:21.483Z,6.82
2022-09-30T20:02:24.287Z,6.10
2022-09-30T20:05:26.635Z,5.30
2022-09-30T20:08:30.338Z,5.07
2022-09-30T20:11:36.074Z,5.37
2022-09-30T20:14:57.091Z,5.43
2022-09-30T20:17:59.382Z,4.95
2022-09-30T20:21:02.079Z,5.75
2022-09-30T20:24:05.211Z,5.82
2022-09-30T20:27:07.487Z,5.97
2022-09-30T20:30:10.206Z,6.22
2022-09-30T20:33:14.882Z,6.13
2022-09-30T20:36:20.026Z,6.05
2022-09-30T20:39:22.936Z,7.15
2022-09-30T20:42:32.871Z,6.67
2022-09-30T20:45:36.273Z,7.53
2022-09-30T20:48:39.286Z,7.05
2022-09-30T20:51:41.550Z,7.65
2022-09-30T20:54:43.848Z,7.40
2022-09-30T20:57:46.155Z,6.90
2022-09-30T21:00:48.500Z,6.43
2022-09-30T21:03:52.986Z,7.18
2022-09-30T21:06:55.367Z,7.20
2022-09-30T21:09:57.691Z,7.57
2022-09-30T21:13:01.482Z,7.60
2022-09-30T21:16:06.008Z,7.85
2022-09-30T21:19:08.844Z,9.32
2022-09-30T21:22:11.314Z,9.32
2022-09-30T21:25:13.697Z,9.70
2022-09-30T21:28:16.082Z,9.83
2022-09-30T21:31:21.346Z,9.00
2022-09-30T21:34:23.827Z,8.48
2022-09-30T21:37:26.402Z,8.10
2022-09-30T21:40:28.964Z,7.78
2022-09-30T21:43:32.361Z,7.33
2022-09-30T21:46:35.860Z,7.10
2022-09-30T21:49:38.464Z,7.55
2022-09-30T21:52:40.761Z,7.32
2022-09-30T21:55:46.413Z,7.40
2022-09-30T21:58:48.692Z,7.47
2022-09-30T22:01:52.771Z,7.63
2022-09-30T22:04:55.111Z,7.75
2022-09-30T22:08:00.006Z,6.80
2022-09-30T22:11:03.745Z,6.57
2022-09-30T22:14:06.052Z,6.60
2022-09-30T22:17:10.145Z,6.78
2022-09-30T22:20:12.421Z,6.88
2022-09-30T22:23:15.139Z,6.97
2022-09-30T22:26:19.153Z,7.13
2022-09-30T22:29:21.456Z,6.97
2022-09-30T22:32:23.806Z,7.95
2022-09-30T22:35:44.729Z,7.15
2022-09-30T22:38:47.046Z,6.90
2022-09-30T22:41:51.263Z,7.03
2022-09-30T22:44:53.541Z,7.10
2022-09-30T22:47:58.273Z,7.65
2022-09-30T22:51:00.979Z,7.00
2022-09-30T22:54:03.458Z,7.65
2022-09-30T22:57:09.334Z,7.35
2022-09-30T23:00:12.495Z,6.83
2022-09-30T23:03:14.783Z,7.25
2022-09-30T23:06:17.076Z,7.13
2022-09-30T23:09:23.227Z,7.10
2022-09-30T23:12:25.533Z,7.28
2022-09-30T23:15:27.820Z,6.47
2022-09-30T23:18:30.911Z,6.68
2022-09-30T23:21:34.079Z,6.07
2022-09-30T23:24:36.618Z,6.60
2022-09-30T23:27:38.950Z,6.60
2022-09-30T23:30:41.281Z,6.33
2022-09-30T23:33:49.623Z,6.63
2022-09-30T23:36:51.877Z,6.90
2022-09-30T23:39:54.169Z,7.10
2022-09-30T23:42:57.662Z,7.22
2022-09-30T23:46:06.129Z,6.83
2022-09-30T23:49:08.502Z,7.47
2022-09-30T23:52:13.150Z,8.07
2022-09-30T23:55:16.936Z,6.93
2022-09-30T23:58:19.238Z,6.93
